createdAt,value
2018-03-23T00:01:32.890Z,101243.11
2018-03-23T00:04:01.981Z,101239.44
2018-03-23T00:06:31.088Z,101229.84
2018-03-23T00:09:00.220Z,101224.71
2018-03-23T00:11:28.528Z,101227.93
2018-03-23T00:13:56.846Z,101216.44
2018-03-23T00:16:25.204Z,101219.34
2018-03-23T00:18:53.508Z,101214.69
2018-03-23T00:21:22.602Z,101219.33
2018-03-23T00:23:50.918Z,101210.00
2018-03-23T00:26:19.244Z,101210.92
2018-03-23T00:28:47.556Z,101200.03
2018-03-23T00:31:15.870Z,101205.77
2018-03-23T00:33:44.194Z,101195.61
2018-03-23T00:36:12.516Z,101194.38
2018-03-23T00:38:41.590Z,101190.70
2018-03-23T00:41:09.916Z,101183.72
2018-03-23T00:43:38.318Z,101186.94
2018-03-23T00:46:06.624Z,101183.81
2018-03-23T00:48:34.954Z,101180.62
2018-03-23T00:51:03.311Z,101182.23
2018-03-23T00:53:32.387Z,101172.49
2018-03-23T00:56:00.708Z,101179.16
2018-03-23T00:58:29.812Z,101176.44
2018-03-23T01:00:58.172Z,101176.16
2018-03-23T01:03:26.490Z,101179.72
2018-03-23T01:05:54.812Z,101180.91
2018-03-23T01:08:23.128Z,101170.44
2018-03-23T01:10:52.337Z,101173.79
2018-03-23T01:13:21.425Z,101171.28
2018-03-23T01:15:49.740Z,101169.99
2018-03-23T01:18:18.053Z,101165.71
2018-03-23T01:20:46.390Z,101162.20
2018-03-23T01:23:15.486Z,101159.89
2018-03-23T01:25:44.576Z,101154.52
2018-03-23T01:28:12.892Z,101157.54
2018-03-23T01:30:42.058Z,101147.89
2018-03-23T01:33:11.146Z,101151.56
2018-03-23T01:35:39.460Z,101146.95
2018-03-23T01:38:07.810Z,101141.48
2018-03-23T01:40:36.145Z,101135.00
2018-03-23T01:43:04.484Z,101133.44
2018-03-23T01:45:32.793Z,101133.44
2018-03-23T01:48:01.105Z,101130.13
2018-03-23T01:50:29.422Z,101131.55
2018-03-23T01:52:57.738Z,101124.98
2018-03-23T01:55:26.071Z,101120.25
2018-03-23T01:57:54.423Z,101123.16
2018-03-23T02:00:22.738Z,101117.23
2018-03-23T02:02:51.106Z,101119.66
2018-03-23T02:05:19.619Z,101118.47
2018-03-23T02:07:48.712Z,101111.13
2018-03-23T02:10:17.105Z,101109.71
2018-03-23T02:12:46.230Z,101102.70
2018-03-23T02:15:15.340Z,101103.29
2018-03-23T02:17:43.670Z,101098.28
2018-03-23T02:20:11.975Z,101098.88
2018-03-23T02:22:40.304Z,101090.34
2018-03-23T02:25:08.619Z,101090.34
2018-03-23T02:27:36.937Z,101084.74
2018-03-23T02:30:06.029Z,101084.88
2018-03-23T02:32:34.366Z,101079.14
2018-03-23T02:35:02.697Z,101081.48
2018-03-23T02:37:31.781Z,101083.14
2018-03-23T02:40:00.110Z,101082.91
2018-03-23T02:42:28.452Z,101081.20
2018-03-23T02:44:57.634Z,101084.28
2018-03-23T02:47:25.975Z,101082.95
2018-03-23T02:49:54.320Z,101074.95
2018-03-23T02:52:22.632Z,101071.65
2018-03-23T02:54:50.999Z,101061.69
2018-03-23T02:57:20.683Z,101064.42
2018-03-23T02:59:49.026Z,101061.94
2018-03-23T03:02:17.352Z,101059.51
2018-03-23T03:04:45.664Z,101062.08
2018-03-23T03:07:14.021Z,101060.93
2018-03-23T03:09:42.446Z,101061.84
2018-03-23T03:12:10.773Z,101053.63
2018-03-23T03:14:39.106Z,101049.81
2018-03-23T03:17:07.471Z,101041.33
2018-03-23T03:19:36.622Z,101035.09
2018-03-23T03:22:04.948Z,101038.80
2018-03-23T03:24:34.046Z,101030.73
2018-03-23T03:27:02.470Z,101030.41
2018-03-23T03:29:30.787Z,101026.09
2018-03-23T03:31:59.107Z,101026.50
2018-03-23T03:34:28.208Z,101021.50
2018-03-23T03:36:56.579Z,101014.02
2018-03-23T03:39:25.706Z,101016.77
2018-03-23T03:41:54.030Z,101009.30
2018-03-23T03:44:22.395Z,101008.14
2018-03-23T03:46:50.701Z,101010.07
2018-03-23T03:49:19.021Z,101006.67
2018-03-23T03:51:48.087Z,101006.91
2018-03-23T03:54:16.427Z,101001.53
2018-03-23T03:56:44.745Z,100998.44
2018-03-23T03:59:13.068Z,101004.22
2018-03-23T04:01:42.150Z,100995.59
2018-03-23T04:04:10.470Z,100995.50
2018-03-23T04:06:39.535Z,100994.62
2018-03-23T04:09:07.857Z,100993.77
2018-03-23T04:11:36.167Z,100983.67
2018-03-23T04:14:04.494Z,100989.09
2018-03-23T04:16:33.590Z,100981.61
2018-03-23T04:19:02.679Z,100979.63
2018-03-23T04:21:31.029Z,100976.83
2018-03-23T04:23:59.395Z,100977.33
2018-03-23T04:26:27.703Z,100978.48
2018-03-23T04:28:56.093Z,100968.84
2018-03-23T04:31:24.393Z,100973.05
2018-03-23T04:33:52.725Z,100962.08
2018-03-23T04:36:21.070Z,100962.77
2018-03-23T04:38:50.137Z,100957.08
2018-03-23T04:41:18.533Z,100963.92
2018-03-23T04:43:46.839Z,100961.25
2018-03-23T04:46:15.172Z,100963.39
2018-03-23T04:48:43.532Z,100959.50
2018-03-23T04:51:11.846Z,100949.78
2018-03-23T04:53:40.192Z,100955.72
2018-03-23T04:56:08.548Z,100944.77
2018-03-23T04:58:36.905Z,100941.43
2018-03-23T05:01:05.208Z,100944.73
2018-03-23T05:03:34.306Z,100940.30
2018-03-23T05:06:03.403Z,100937.25
2018-03-23T05:08:32.471Z,100925.94
2018-03-23T05:11:00.808Z,100925.27
2018-03-23T05:13:29.112Z,100920.83
2018-03-23T05:15:57.462Z,100918.81
2018-03-23T05:18:26.563Z,100914.61
2018-03-23T05:20:55.651Z,100919.84
2018-03-23T05:23:24.747Z,100907.97
2018-03-23T05:25:53.058Z,100913.34
2018-03-23T05:28:21.449Z,100912.84
2018-03-23T05:30:49.777Z,100906.64
2018-03-23T05:33:18.903Z,100895.71
2018-03-23T05:35:48.005Z,100901.53
2018-03-23T05:38:17.109Z,100894.80
2018-03-23T05:40:46.307Z,100893.30
2018-03-23T05:43:15.387Z,100880.89
2018-03-23T05:45:44.483Z,100876.45
2018-03-23T05:48:12.785Z,100877.80
2018-03-23T05:50:41.877Z,100875.00
2018-03-23T05:53:10.993Z,100877.11
2018-03-23T05:55:39.337Z,100875.70
2018-03-23T05:58:07.644Z,100869.98
2018-03-23T06:00:36.741Z,100872.73
2018-03-23T06:03:05.828Z,100866.00
2018-03-23T06:05:34.141Z,100864.13
2018-03-23T06:08:03.223Z,100855.17
2018-03-23T06:10:32.307Z,100850.09
2018-03-23T06:13:00.635Z,100855.46
2018-03-23T06:15:28.937Z,100847.84
2018-03-23T06:17:57.275Z,100850.73
2018-03-23T06:20:26.402Z,100852.02
2018-03-23T06:22:54.819Z,100853.07
2018-03-23T06:25:23.095Z,100848.80
2018-03-23T06:27:52.072Z,100853.34
2018-03-23T06:30:20.385Z,100851.28
2018-03-23T06:32:48.703Z,100846.03
2018-03-23T06:35:17.781Z,100843.42
2018-03-23T06:37:46.099Z,100840.25
2018-03-23T06:40:14.420Z,100841.16
2018-03-23T06:42:42.733Z,100839.65
2018-03-23T06:45:11.067Z,100839.08
2018-03-23T06:47:39.385Z,100835.64
2018-03-23T06:50:07.727Z,100831.99
2018-03-23T06:52:36.047Z,100829.78
2018-03-23T06:55:04.355Z,100835.93
2018-03-23T06:57:33.469Z,100831.02
2018-03-23T07:00:02.564Z,100827.75
2018-03-23T07:02:30.905Z,100835.55
2018-03-23T07:04:59.245Z,100835.74
2018-03-23T07:07:27.558Z,100831.37
2018-03-23T07:09:55.894Z,100827.95
2018-03-23T07:12:25.051Z,100821.92
2018-03-23T07:14:53.378Z,100824.83
2018-03-23T07:17:21.723Z,100827.72
2018-03-23T07:19:50.059Z,100828.89
2018-03-23T07:22:18.391Z,100821.17
2018-03-23T07:24:46.709Z,100821.91
2018-03-23T07:27:15.041Z,100816.72
2018-03-23T07:29:43.349Z,100820.55
2018-03-23T07:32:11.719Z,100811.31
2018-03-23T07:34:40.054Z,100810.83
2018-03-23T07:37:08.386Z,100809.93
2018-03-23T07:39:36.789Z,100808.30
2018-03-23T07:42:05.155Z,100804.76
2018-03-23T07:44:33.481Z,100813.48
2018-03-23T07:47:01.793Z,100803.44
2018-03-23T07:49:30.109Z,100804.28
2018-03-23T07:51:58.438Z,100807.38
2018-03-23T07:54:26.748Z,100812.09
2018-03-23T07:56:55.079Z,100805.69
2018-03-23T07:59:24.152Z,100809.28
2018-03-23T08:01:53.348Z,100794.11
2018-03-23T08:04:21.661Z,100794.66
2018-03-23T08:06:50.775Z,100791.36
2018-03-23T08:09:19.849Z,100783.66
2018-03-23T08:11:48.161Z,100787.28
2018-03-23T08:14:16.477Z,100788.29
2018-03-23T08:16:44.804Z,100790.39
2018-03-23T08:19:13.131Z,100783.41
2018-03-23T08:21:41.447Z,100780.32
2018-03-23T08:24:09.787Z,100781.45
2018-03-23T08:26:38.107Z,100764.72
2018-03-23T08:29:06.418Z,100784.12
2018-03-23T08:31:35.506Z,100769.93
2018-03-23T08:34:04.671Z,100772.72
2018-03-23T08:36:33.003Z,100766.35
2018-03-23T08:39:02.083Z,100762.45
2018-03-23T08:41:31.231Z,100756.80
2018-03-23T08:43:59.564Z,100760.90
2018-03-23T08:46:27.889Z,100763.97
2018-03-23T08:48:56.212Z,100753.92
2018-03-23T08:51:24.557Z,100753.51
2018-03-23T08:53:52.878Z,100758.95
2018-03-23T08:56:21.203Z,100753.95
2018-03-23T08:58:49.549Z,100744.88
2018-03-23T09:01:17.889Z,100738.87
2018-03-23T09:03:46.247Z,100737.94
2018-03-23T09:06:15.333Z,100730.05
2018-03-23T09:08:43.684Z,100721.28
2018-03-23T09:11:12.054Z,100722.89
2018-03-23T09:13:40.366Z,100705.91
2018-03-23T09:16:08.767Z,100710.94
2018-03-23T09:18:37.847Z,100710.10
2018-03-23T09:21:06.161Z,100705.57
2018-03-23T09:23:35.269Z,100697.38
2018-03-23T09:26:04.351Z,100692.11
2018-03-23T09:28:33.448Z,100693.77
2018-03-23T09:31:02.549Z,100698.17
2018-03-23T09:33:31.631Z,100689.80
2018-03-23T09:35:59.950Z,100680.02
2018-03-23T09:38:28.287Z,100680.81
2018-03-23T09:40:56.641Z,100678.16
2018-03-23T09:43:24.971Z,100672.92
2018-03-23T09:45:53.305Z,100658.42
2018-03-23T09:48:21.654Z,100658.66
2018-03-23T09:50:49.972Z,100662.62
2018-03-23T09:53:18.272Z,100652.72
2018-03-23T09:55:46.609Z,100664.87
2018-03-23T09:58:14.941Z,100660.52
2018-03-23T10:00:43.276Z,100656.84
2018-03-23T10:03:11.626Z,100639.36
2018-03-23T10:05:40.017Z,100647.91
2018-03-23T10:08:09.112Z,100639.78
2018-03-23T10:10:38.215Z,100639.05
2018-03-23T10:13:06.538Z,100648.52
2018-03-23T10:15:34.875Z,100635.86
2018-03-23T10:18:03.193Z,100636.91
2018-03-23T10:20:31.525Z,100640.89
2018-03-23T10:22:59.823Z,100638.42
2018-03-23T10:25:28.148Z,100622.69
2018-03-23T10:27:56.493Z,100628.09
2018-03-23T10:30:25.598Z,100624.98
2018-03-23T10:32:54.675Z,100619.23
2018-03-23T10:35:23.048Z,100624.58
2018-03-23T10:37:51.363Z,100615.14
2018-03-23T10:40:20.472Z,100612.38
2018-03-23T10:42:48.789Z,100615.58
2018-03-23T10:45:17.116Z,100599.98
2018-03-23T10:47:45.438Z,100605.53
2018-03-23T10:50:13.747Z,100602.59
2018-03-23T10:52:42.146Z,100606.16
2018-03-23T10:55:10.475Z,100592.73
2018-03-23T10:57:38.802Z,100601.95
2018-03-23T11:00:07.150Z,100586.27
2018-03-23T11:02:49.972Z,100589.09
2018-03-23T11:05:18.282Z,100582.20
2018-03-23T11:07:47.581Z,100579.86
2018-03-23T11:10:15.901Z,100579.66
2018-03-23T11:12:44.986Z,100574.70
2018-03-23T11:15:13.313Z,100563.81
2018-03-23T11:17:41.642Z,100572.01
2018-03-23T11:20:10.033Z,100583.63
2018-03-23T11:22:38.368Z,100577.49
2018-03-23T11:25:06.702Z,100578.69
2018-03-23T11:27:35.018Z,100567.40
2018-03-23T11:30:03.356Z,100569.59
2018-03-23T11:32:32.420Z,100559.52
2018-03-23T11:35:00.745Z,100552.89
2018-03-23T11:37:29.822Z,100554.11
2018-03-23T11:39:58.137Z,100548.45
2018-03-23T11:42:27.376Z,100545.16
2018-03-23T11:44:55.698Z,100545.61
2018-03-23T11:47:24.008Z,100557.11
2018-03-23T11:49:53.106Z,100546.91
2018-03-23T11:52:21.424Z,100550.44
2018-03-23T11:54:49.733Z,100558.02
2018-03-23T11:57:18.054Z,100548.31
2018-03-23T11:59:47.136Z,100554.02
2018-03-23T12:02:16.314Z,100541.80
2018-03-23T12:04:44.649Z,100549.89
2018-03-23T12:07:13.731Z,100544.27
2018-03-23T12:09:42.059Z,100529.50
2018-03-23T12:12:10.364Z,100518.14
2018-03-23T12:14:38.698Z,100518.16
2018-03-23T12:17:07.032Z,100508.96
2018-03-23T12:19:35.368Z,100520.98
2018-03-23T12:22:03.716Z,100506.94
2018-03-23T12:24:32.034Z,100498.45
2018-03-23T12:27:00.372Z,100509.31
2018-03-23T12:29:28.712Z,100504.90
2018-03-23T12:31:57.061Z,100497.39
2018-03-23T12:34:26.144Z,100506.80
2018-03-23T12:36:54.474Z,100510.55
2018-03-23T12:39:22.822Z,100512.55
2018-03-23T12:41:51.156Z,100507.03
2018-03-23T12:44:19.469Z,100503.20
2018-03-23T12:46:47.787Z,100496.74
2018-03-23T12:49:16.872Z,100489.09
2018-03-23T12:51:46.060Z,100479.41
2018-03-23T12:54:14.542Z,100475.38
2018-03-23T12:56:42.863Z,100471.29
2018-03-23T12:59:11.213Z,100461.83
2018-03-23T13:01:39.610Z,100470.81
2018-03-23T13:04:09.398Z,100477.83
2018-03-23T13:06:37.725Z,100475.86
2018-03-23T13:09:06.063Z,100465.84
2018-03-23T13:11:34.545Z,100479.49
2018-03-23T13:14:02.862Z,100472.11
2018-03-23T13:16:31.956Z,100470.65
2018-03-23T13:19:01.062Z,100460.23
2018-03-23T13:21:29.454Z,100458.44
2018-03-23T13:23:57.830Z,100462.88
2018-03-23T13:26:26.924Z,100466.88
2018-03-23T13:28:56.107Z,100467.67
2018-03-23T13:31:24.463Z,100467.39
2018-03-23T13:33:52.867Z,100461.56
2018-03-23T13:36:21.186Z,100466.61
2018-03-23T13:38:50.250Z,100466.62
2018-03-23T13:41:18.567Z,100464.22
2018-03-23T13:43:47.690Z,100460.48
2018-03-23T13:46:16.075Z,100450.13
2018-03-23T13:48:44.388Z,100451.92
2018-03-23T13:51:12.717Z,100452.98
2018-03-23T13:53:41.810Z,100454.54
2018-03-23T13:56:10.962Z,100449.53
2018-03-23T13:58:44.671Z,100451.78
2018-03-23T14:01:19.016Z,100436.80
2018-03-23T14:03:47.328Z,100446.55
2018-03-23T14:06:15.648Z,100437.81
2018-03-23T14:08:43.975Z,100440.59
2018-03-23T14:11:13.063Z,100436.19
2018-03-23T14:13:41.423Z,100437.00
2018-03-23T14:16:09.759Z,100434.10
2018-03-23T14:18:38.080Z,100440.41
2018-03-23T14:21:06.394Z,100435.42
2018-03-23T14:23:35.471Z,100433.94
2018-03-23T14:26:03.810Z,100426.27
2018-03-23T14:28:32.235Z,100422.44
2018-03-23T14:31:00.487Z,100423.07
2018-03-23T14:33:28.821Z,100422.84
2018-03-23T14:35:57.136Z,100423.03
2018-03-23T14:38:25.449Z,100408.06
2018-03-23T14:40:53.781Z,100405.12
2018-03-23T14:43:22.855Z,100405.61
2018-03-23T14:45:51.173Z,100403.25
2018-03-23T14:48:20.265Z,100402.44
2018-03-23T14:50:49.383Z,100399.90
2018-03-23T14:53:17.701Z,100399.00
2018-03-23T14:55:46.042Z,100391.91
2018-03-23T14:58:15.122Z,100402.84
2018-03-23T15:00:44.298Z,100397.55
2018-03-23T15:03:12.644Z,100387.04
2018-03-23T15:05:40.955Z,100394.41
2018-03-23T15:08:09.274Z,100396.56
2018-03-23T15:10:38.463Z,100387.85
2018-03-23T15:13:06.741Z,100399.05
2018-03-23T15:15:35.071Z,100399.19
2018-03-23T15:18:03.443Z,100401.08
2018-03-23T15:20:31.810Z,100400.19
2018-03-23T15:23:00.911Z,100385.94
2018-03-23T15:25:30.015Z,100385.42
2018-03-23T15:27:58.379Z,100384.92
2018-03-23T15:30:26.697Z,100388.00
2018-03-23T15:32:55.010Z,100388.38
2018-03-23T15:35:24.090Z,100390.55
2018-03-23T15:37:52.408Z,100383.86
2018-03-23T15:40:20.803Z,100374.98
2018-03-23T15:42:49.131Z,100370.70
2018-03-23T15:45:17.455Z,100365.38
2018-03-23T15:47:45.787Z,100358.09
2018-03-23T15:50:14.120Z,100369.30
2018-03-23T15:52:42.589Z,100365.58
2018-03-23T15:55:10.927Z,100369.02
2018-03-23T15:57:40.065Z,100367.49
2018-03-23T16:00:08.480Z,100362.14
2018-03-23T16:02:36.852Z,100362.56
2018-03-23T16:05:05.309Z,100359.59
2018-03-23T16:07:33.647Z,100361.73
2018-03-23T16:10:01.965Z,100354.36
2018-03-23T16:12:30.313Z,100355.27
2018-03-23T16:14:58.643Z,100349.10
2018-03-23T16:17:26.971Z,100347.21
2018-03-23T16:19:55.316Z,100350.41
2018-03-23T16:22:23.754Z,100350.14
2018-03-23T16:24:52.843Z,100347.23
2018-03-23T16:27:21.213Z,100343.20
2018-03-23T16:29:49.553Z,100344.15
2018-03-23T16:32:17.948Z,100345.91
2018-03-23T16:34:46.277Z,100340.43
2018-03-23T16:37:15.365Z,100348.09
2018-03-23T16:39:43.695Z,100338.59
2018-03-23T16:42:11.997Z,100344.92
2018-03-23T16:44:40.350Z,100341.39
2018-03-23T16:47:08.677Z,100341.52
2018-03-23T16:49:37.018Z,100326.69
2018-03-23T16:52:05.431Z,100339.55
2018-03-23T16:54:33.836Z,100334.47
2018-03-23T16:57:02.192Z,100340.84
2018-03-23T16:59:30.537Z,100336.69
2018-03-23T17:01:58.941Z,100341.02
2018-03-23T17:04:27.984Z,100343.07
2018-03-23T17:06:56.332Z,100333.27
2018-03-23T17:09:24.738Z,100338.44
2018-03-23T17:11:53.161Z,100331.16
2018-03-23T17:14:22.245Z,100332.23
2018-03-23T17:16:50.615Z,100331.20
2018-03-23T17:19:18.945Z,100327.20
2018-03-23T17:21:47.347Z,100329.26
2018-03-23T17:24:15.772Z,100330.08
2018-03-23T17:26:44.987Z,100333.98
2018-03-23T17:29:14.219Z,100328.17
2018-03-23T17:31:42.686Z,100321.41
2018-03-23T17:34:11.810Z,100326.53
2018-03-23T17:36:40.282Z,100328.89
2018-03-23T17:39:08.655Z,100329.41
2018-03-23T17:41:37.944Z,100321.03
2018-03-23T17:44:06.297Z,100316.72
2018-03-23T17:46:34.837Z,100325.74
2018-03-23T17:49:03.274Z,100328.03
2018-03-23T17:51:31.713Z,100327.72
2018-03-23T17:54:00.117Z,100328.50
2018-03-23T17:56:28.478Z,100326.05
2018-03-23T17:58:56.792Z,100318.25
2018-03-23T18:01:25.253Z,100324.91
2018-03-23T18:03:53.699Z,100326.69
2018-03-23T18:06:22.867Z,100326.98
2018-03-23T18:08:51.192Z,100332.93
2018-03-23T18:11:19.701Z,100326.16
2018-03-23T18:13:48.243Z,100330.98
2018-03-23T18:16:16.768Z,100333.74
2018-03-23T18:18:45.237Z,100334.15
2018-03-23T18:21:14.683Z,100328.83
2018-03-23T18:23:43.783Z,100330.39
2018-03-23T18:26:12.315Z,100334.08
2018-03-23T18:28:41.660Z,100333.05
2018-03-23T18:31:10.029Z,100329.57
2018-03-23T18:33:39.367Z,100327.72
2018-03-23T18:36:07.905Z,100328.92
2018-03-23T18:38:36.269Z,100336.20
2018-03-23T18:41:04.615Z,100328.21
2018-03-23T18:43:33.035Z,100342.15
2018-03-23T18:46:01.384Z,100336.92
2018-03-23T18:48:29.830Z,100336.72
2018-03-23T18:50:58.214Z,100337.64
2018-03-23T18:53:26.542Z,100340.40
2018-03-23T18:55:54.878Z,100335.08
2018-03-23T18:58:23.270Z,100335.79
2018-03-23T19:00:52.585Z,100341.73
2018-03-23T19:03:21.154Z,100343.98
2018-03-23T19:05:49.496Z,100340.12
2018-03-23T19:08:18.049Z,100341.73
2018-03-23T19:10:47.570Z,100339.38
2018-03-23T19:13:16.904Z,100336.00
2018-03-23T19:15:45.677Z,100332.72
2018-03-23T19:18:14.271Z,100333.02
2018-03-23T19:20:42.638Z,100332.31
2018-03-23T19:23:10.966Z,100334.25
2018-03-23T19:25:39.484Z,100330.25
2018-03-23T19:28:08.076Z,100327.48
2018-03-23T19:30:36.705Z,100334.56
2018-03-23T19:33:05.255Z,100331.80
2018-03-23T19:35:33.835Z,100328.72
2018-03-23T19:38:02.436Z,100326.16
2018-03-23T19:40:30.829Z,100332.92
2018-03-23T19:42:59.201Z,100320.83
2018-03-23T19:45:27.514Z,100320.66
2018-03-23T19:47:56.045Z,100323.08
2018-03-23T19:50:24.679Z,100320.66
2018-03-23T19:52:53.242Z,100318.41
2018-03-23T19:55:21.589Z,100318.41
2018-03-23T19:57:50.149Z,100313.27
2018-03-23T20:00:18.493Z,100308.58
2018-03-23T20:02:47.929Z,100311.23
2018-03-23T20:05:16.577Z,100313.25
2018-03-23T20:07:45.109Z,100304.33
2018-03-23T20:10:13.563Z,100307.99
2018-03-23T20:12:42.790Z,100307.08
2018-03-23T20:15:11.116Z,100310.45
2018-03-23T20:17:45.076Z,100308.11
2018-03-23T20:20:18.849Z,100308.73
2018-03-23T20:22:47.200Z,100309.05
2018-03-23T20:25:16.324Z,100308.20
2018-03-23T20:27:50.331Z,100310.88
2018-03-23T20:30:18.639Z,100304.44
2018-03-23T20:32:47.703Z,100303.74
2018-03-23T20:35:16.132Z,100303.22
2018-03-23T20:37:44.477Z,100301.39
2018-03-23T20:40:12.828Z,100306.31
2018-03-23T20:42:41.164Z,100303.55
2018-03-23T20:45:10.274Z,100304.58
2018-03-23T20:47:39.531Z,100304.97
2018-03-23T20:50:07.866Z,100305.39
2018-03-23T20:52:37.105Z,100308.36
2018-03-23T20:55:05.441Z,100299.45
2018-03-23T20:57:34.647Z,100310.92
2018-03-23T21:00:02.969Z,100302.22
2018-03-23T21:02:31.286Z,100307.23
2018-03-23T21:04:59.587Z,100312.86
2018-03-23T21:07:28.763Z,100311.63
2018-03-23T21:09:57.128Z,100322.58
2018-03-23T21:12:25.660Z,100311.95
2018-03-23T21:14:55.150Z,100325.36
2018-03-23T21:17:24.243Z,100315.64
2018-03-23T21:19:52.640Z,100316.84
2018-03-23T21:22:21.854Z,100319.83
2018-03-23T21:24:50.217Z,100317.48
2018-03-23T21:27:18.731Z,100319.31
2018-03-23T21:29:47.078Z,100323.91
2018-03-23T21:32:15.415Z,100320.30
2018-03-23T21:34:43.727Z,100312.84
2018-03-23T21:37:12.102Z,100310.98
2018-03-23T21:39:40.474Z,100311.50
2018-03-23T21:42:08.802Z,100309.22
2018-03-23T21:44:37.146Z,100310.67
2018-03-23T21:47:05.476Z,100312.11
2018-03-23T21:49:33.888Z,100314.47
2018-03-23T21:52:02.194Z,100313.97
2018-03-23T21:54:30.558Z,100302.18
2018-03-23T21:56:58.894Z,100314.69
2018-03-23T21:59:27.203Z,100311.83
2018-03-23T22:01:56.277Z,100311.02
2018-03-23T22:04:24.692Z,100308.67
2018-03-23T22:06:53.817Z,100313.66
2018-03-23T22:09:22.160Z,100311.72
2018-03-23T22:11:51.298Z,100307.12
2018-03-23T22:14:19.604Z,100304.67
2018-03-23T22:16:47.944Z,100307.63
2018-03-23T22:19:16.319Z,100305.48
2018-03-23T22:21:45.470Z,100301.27
2018-03-23T22:24:13.848Z,100306.18
2018-03-23T22:26:42.945Z,100300.96
2018-03-23T22:29:12.256Z,100300.02
2018-03-23T22:31:40.609Z,100301.81
2018-03-23T22:34:08.919Z,100302.73
2018-03-23T22:36:37.252Z,100301.20
2018-03-23T22:39:06.358Z,100296.34
2018-03-23T22:41:35.428Z,100297.14
2018-03-23T22:44:03.754Z,100302.75
2018-03-23T22:46:32.071Z,100299.37
2018-03-23T22:49:00.415Z,100299.28
2018-03-23T22:51:28.817Z,100289.84
2018-03-23T22:53:57.757Z,100289.61
2018-03-23T22:56:26.093Z,100281.57
2018-03-23T22:58:54.430Z,100284.98
2018-03-23T23:01:23.570Z,100287.97
2018-03-23T23:03:51.932Z,100279.26
2018-03-23T23:06:21.052Z,100282.48
2018-03-23T23:08:49.399Z,100279.83
2018-03-23T23:11:18.515Z,100286.79
2018-03-23T23:13:47.628Z,100284.45
2018-03-23T23:16:15.923Z,100286.59
2018-03-23T23:18:44.220Z,100288.36
2018-03-23T23:21:12.530Z,100284.18
2018-03-23T23:23:41.640Z,100286.77
2018-03-23T23:26:10.749Z,100281.38
2018-03-23T23:28:39.856Z,100283.41
2018-03-23T23:31:08.941Z,100276.60
2018-03-23T23:33:37.282Z,100271.45
2018-03-23T23:36:05.602Z,100276.67
2018-03-23T23:38:33.958Z,100280.25
2018-03-23T23:41:02.291Z,100277.50
2018-03-23T23:43:31.370Z,100270.64
2018-03-23T23:45:59.699Z,100276.58
2018-03-23T23:48:28.030Z,100270.98
2018-03-23T23:50:56.360Z,100272.95
2018-03-23T23:53:24.708Z,100276.58
2018-03-23T23:55:53.806Z,100276.40
2018-03-23T23:58:22.890Z,100272.42
